Bretton Woods, NH (03575)

3:37 AM EST on December 04, 2016 (GMT -0500)
APRSWXNET | | Change Station

Elev 807 ft 44.35 °N, 71.91 °W | Updated 38 days ago

Partly Cloudy
Partly Cloudy
24 °F
Feels Like 10 °F
N
23
Wind Variable Wind from WNW
Gusts 36 mph

Today
High -- | Low -- °F
--% Chance of Precip.
Yesterday
High -- | Low -- °F
Precip. -- in
Pressure 30.09 in
Visibility 10.0 miles
Clouds Overcast 3000 ft
Windchill 10 °F
Dew Point 17 °F
Humidity 72%
Rainfall in
Snow Depth Not available.
7:05 AM 4:07 PM
Waxing Crescent, 21% visible
SPECI KHIE 040826Z AUTO 31008KT 10SM OVC030 M02/M08 A3009 RMK AO2 T10221078
Pressure 30.09 in
Visibility 10.0 miles
Clouds Overcast 3000 ft
Windchill 10 °F
Dew Point 17 °F
Humidity 72%
Rainfall in
Snow Depth Not available.
7:05 AM 4:07 PM
Waxing Crescent, 21% visible
SPECI KHIE 040826Z AUTO 31008KT 10SM OVC030 M02/M08 A3009 RMK AO2 T10221078

10-Day Weather Forecast

Almanac

Astronomy

Dec. 04, 2016 Rise Set
Actual Time
Civil Twilight
Nautical Twilight
Astronomical Twilight
Moon
Length of Visible Light
Length of Day
Tomorrow will be .
, % of the Moon is Illuminated

Today's Extremes

State Highs State Lows

Community

WunderPhotos

Upload Photos

1,955,587 photos uploaded!

WunderBlog® & News

Nearby

Air Quality

  Air Quality AQ Index Pollutant
Not available.

Snow Depth

Station Depth Elevation

Earthquake Activity

City Distance Mag. Time & Date
Minimum magnitude displayed is 2.5.

Coastal Water Temperatures

Place Temperature

Stations

Nearby Weather Stations

Station Location Temp. Windchill Dew Point Humidity Wind Precip. Elev Updated Type
                   

Watches & Warnings

There are currently no watches in effect.